Tipton, Kansas
Current Conditions -  °F | °C
As of 5:53 AM on Monday 20 Oct 2014 (Local Time) from KRSL Reporting Station
Clear Clear  
Wind Chill: 44°   Ceiling: Unl
Heat Index: 47°   Visibility: 8mi
Dew Point: 46°   Wind: 7mph
Humidity: 97%   Direction: 330°NNW
Pressure: 30.03"   Gusts: NA
Location:  39.34°N, 98.47°W
Report Text: KRSL 201053Z AUTO 33006KT 8SM CLR 08/08 A3003 RMK AO2 SLP165 T00830078
Loading
Personal Weather Stations






























Interactive Weather Map
Tropical Storm Tracking
New forecast layout! Learn more

10-Day Weather Forecast

Advertisements
Track Severe Weather on mobile